createdAt,value
2023-05-19T00:01:36.482Z,11.45
2023-05-19T00:04:03.946Z,11.48
2023-05-19T00:06:32.796Z,11.51
2023-05-19T00:09:00.880Z,11.46
2023-05-19T00:11:28.795Z,11.48
2023-05-19T00:13:56.496Z,11.50
2023-05-19T00:16:24.104Z,11.51
2023-05-19T00:18:57.583Z,11.45
2023-05-19T00:21:24.220Z,11.46
2023-05-19T00:23:50.921Z,11.40
2023-05-19T00:26:17.923Z,11.37
2023-05-19T00:28:56.081Z,11.41
2023-05-19T00:31:25.040Z,11.32
2023-05-19T00:33:53.185Z,11.30
2023-05-19T00:36:19.930Z,11.33
2023-05-19T00:38:49.383Z,11.33
2023-05-19T00:41:16.082Z,11.34
2023-05-19T00:43:42.841Z,11.32
2023-05-19T00:46:09.590Z,11.31
2023-05-19T00:48:36.230Z,11.26
2023-05-19T00:51:05.266Z,11.23
2023-05-19T00:53:36.012Z,11.17
2023-05-19T00:56:03.436Z,11.19
2023-05-19T00:58:33.642Z,11.12
2023-05-19T01:01:00.796Z,11.11
2023-05-19T01:03:27.867Z,11.09
2023-05-19T01:05:54.608Z,11.00
2023-05-19T01:08:23.037Z,11.05
2023-05-19T01:10:52.514Z,11.04
2023-05-19T01:13:19.267Z,11.02
2023-05-19T01:16:01.514Z,11.00
2023-05-19T01:18:40.995Z,11.00
2023-05-19T01:21:26.094Z,10.98
2023-05-19T01:24:04.607Z,10.96
2023-05-19T01:27:09.507Z,10.93
2023-05-19T01:29:45.175Z,10.86
2023-05-19T01:32:21.010Z,10.88
2023-05-19T01:34:50.751Z,10.83
2023-05-19T01:37:18.039Z,10.87
2023-05-19T01:39:46.546Z,10.90
2023-05-19T01:42:15.085Z,10.86
2023-05-19T01:44:44.577Z,10.83
2023-05-19T01:47:12.962Z,10.78
2023-05-19T01:49:39.621Z,10.77
2023-05-19T01:52:06.467Z,10.73
2023-05-19T01:54:33.517Z,10.69
2023-05-19T01:57:06.163Z,10.73
2023-05-19T01:59:42.121Z,10.75
2023-05-19T02:02:21.247Z,10.73
2023-05-19T02:04:55.683Z,10.73
2023-05-19T02:07:31.027Z,10.70
2023-05-19T02:10:04.631Z,10.68
2023-05-19T02:12:34.346Z,10.67
2023-05-19T02:15:10.180Z,10.68
2023-05-19T02:17:44.078Z,10.61
2023-05-19T02:20:11.642Z,10.57
2023-05-19T02:22:38.204Z,10.59
2023-05-19T02:25:05.451Z,10.62
2023-05-19T02:27:33.202Z,10.59
2023-05-19T02:30:00.005Z,10.54
2023-05-19T02:32:26.524Z,10.49
2023-05-19T02:34:54.856Z,10.51
2023-05-19T02:39:51.337Z,10.48
2023-05-19T02:42:17.963Z,10.38
2023-05-19T02:44:47.345Z,10.43
2023-05-19T02:47:14.084Z,10.36
2023-05-19T02:49:41.402Z,10.29
2023-05-19T02:52:09.637Z,10.30
2023-05-19T02:54:36.544Z,10.39
2023-05-19T02:57:11.342Z,10.36
2023-05-19T02:59:41.799Z,10.39
2023-05-19T03:02:10.751Z,10.40
2023-05-19T03:04:37.473Z,10.37
2023-05-19T03:07:04.642Z,10.36
2023-05-19T03:09:32.831Z,10.32
2023-05-19T03:11:59.882Z,10.26
2023-05-19T03:14:33.977Z,10.26
2023-05-19T03:17:06.276Z,10.32
2023-05-19T03:19:34.919Z,10.25
2023-05-19T03:22:02.185Z,10.23
2023-05-19T03:24:32.200Z,10.35
2023-05-19T03:27:06.482Z,10.24
2023-05-19T03:29:33.376Z,10.35
2023-05-19T03:32:00.380Z,10.26
2023-05-19T03:34:29.225Z,10.28
2023-05-19T03:36:58.589Z,10.24
2023-05-19T03:39:25.579Z,10.17
2023-05-19T03:41:56.976Z,10.17
2023-05-19T03:44:28.059Z,10.17
2023-05-19T03:46:59.083Z,10.18
2023-05-19T03:49:46.886Z,10.15
2023-05-19T03:52:40.491Z,10.13
2023-05-19T03:55:21.941Z,10.02
2023-05-19T03:57:48.836Z,10.04
2023-05-19T04:00:19.626Z,10.01
2023-05-19T04:02:46.783Z,10.01
2023-05-19T04:05:16.181Z,9.96
2023-05-19T04:07:46.085Z,10.00
2023-05-19T04:10:14.927Z,9.98
2023-05-19T04:12:59.570Z,9.91
2023-05-19T04:15:30.444Z,9.86
2023-05-19T04:17:58.587Z,9.93
2023-05-19T04:20:34.345Z,10.04
2023-05-19T04:23:05.683Z,9.97
2023-05-19T04:25:34.521Z,10.08
2023-05-19T04:28:09.671Z,9.93
2023-05-19T04:30:43.515Z,10.12
2023-05-19T04:33:13.008Z,10.04
2023-05-19T04:35:53.664Z,10.21
2023-05-19T04:38:26.553Z,10.15
2023-05-19T04:40:58.343Z,10.14
2023-05-19T04:43:26.564Z,10.21
2023-05-19T04:45:57.622Z,10.21
2023-05-19T04:48:27.811Z,10.21
2023-05-19T04:51:01.815Z,10.24
2023-05-19T04:53:29.010Z,10.22
2023-05-19T04:55:58.884Z,10.32
2023-05-19T04:58:29.074Z,10.37
2023-05-19T05:00:57.346Z,10.45
2023-05-19T05:03:26.876Z,10.40
2023-05-19T05:05:55.585Z,10.49
2023-05-19T05:08:23.852Z,10.50
2023-05-19T05:10:52.409Z,10.58
2023-05-19T05:13:25.699Z,10.68
2023-05-19T05:15:53.884Z,10.63
2023-05-19T05:18:24.541Z,10.75
2023-05-19T05:20:54.405Z,10.83
2023-05-19T05:23:21.823Z,10.92
2023-05-19T05:25:49.946Z,10.95
2023-05-19T05:28:16.992Z,11.04
2023-05-19T05:30:44.646Z,11.02
2023-05-19T05:33:21.965Z,11.14
2023-05-19T05:35:50.466Z,11.30
2023-05-19T05:38:29.109Z,11.40
2023-05-19T05:40:59.566Z,11.46
2023-05-19T05:43:33.509Z,11.47
2023-05-19T05:46:06.766Z,11.56
2023-05-19T05:48:36.224Z,11.76
2023-05-19T05:51:12.381Z,11.85
2023-05-19T05:54:01.028Z,11.92
2023-05-19T05:56:37.310Z,12.10
2023-05-19T05:59:11.654Z,12.19
2023-05-19T06:01:43.842Z,12.34
2023-05-19T06:04:15.521Z,12.48
2023-05-19T06:06:57.217Z,12.80
2023-05-19T06:09:33.806Z,13.01
2023-05-19T06:12:01.727Z,13.31
2023-05-19T06:14:33.395Z,14.03
2023-05-19T06:17:21.888Z,14.37
2023-05-19T06:19:50.542Z,14.41
2023-05-19T06:22:18.716Z,14.71
2023-05-19T06:24:45.543Z,14.76
2023-05-19T06:27:15.318Z,14.78
2023-05-19T06:29:46.538Z,14.73
2023-05-19T06:32:13.685Z,15.06
2023-05-19T06:34:43.835Z,15.26
2023-05-19T06:37:10.575Z,15.17
2023-05-19T06:39:42.034Z,15.32
2023-05-19T06:42:08.764Z,15.62
2023-05-19T06:44:57.932Z,15.98
2023-05-19T06:47:26.923Z,16.37
2023-05-19T06:49:53.732Z,16.48
2023-05-19T06:52:25.001Z,16.27
2023-05-19T06:54:54.053Z,16.13
2023-05-19T06:57:22.982Z,16.08
2023-05-19T06:59:57.157Z,16.45
2023-05-19T07:02:24.375Z,16.59
2023-05-19T07:04:51.282Z,16.40
2023-05-19T07:07:20.384Z,16.40
2023-05-19T07:09:47.334Z,16.59
2023-05-19T07:12:17.213Z,16.91
2023-05-19T07:14:43.847Z,16.96
2023-05-19T07:17:11.256Z,17.10
2023-05-19T07:19:42.261Z,17.31
2023-05-19T07:22:09.114Z,17.46
2023-05-19T07:24:40.537Z,17.58
2023-05-19T07:27:10.419Z,17.57
2023-05-19T07:29:41.234Z,17.55
2023-05-19T07:32:08.120Z,17.42
2023-05-19T07:34:39.247Z,17.03
2023-05-19T07:37:06.123Z,16.76
2023-05-19T07:39:35.070Z,16.86
2023-05-19T07:42:08.915Z,17.02
2023-05-19T07:44:39.585Z,17.15
2023-05-19T07:47:09.121Z,17.12
2023-05-19T07:49:35.866Z,17.14
2023-05-19T07:52:04.919Z,16.87
2023-05-19T07:54:37.312Z,16.86
2023-05-19T07:57:10.452Z,16.80
2023-05-19T07:59:38.770Z,16.97
2023-05-19T08:02:07.282Z,17.23
2023-05-19T08:04:41.365Z,17.82
2023-05-19T08:07:08.217Z,18.35
2023-05-19T08:09:34.924Z,18.78
2023-05-19T08:12:04.534Z,18.97
2023-05-19T08:14:36.402Z,19.11
2023-05-19T08:17:04.463Z,19.11
2023-05-19T08:19:37.454Z,18.81
2023-05-19T08:22:04.617Z,18.29
2023-05-19T08:24:31.236Z,18.47
2023-05-19T08:27:00.895Z,18.27
2023-05-19T08:29:31.183Z,17.98
2023-05-19T08:31:59.363Z,17.81
2023-05-19T08:34:26.085Z,17.71
2023-05-19T08:36:58.461Z,17.46
2023-05-19T08:39:25.419Z,17.48
2023-05-19T08:42:02.613Z,17.73
2023-05-19T08:44:29.409Z,18.28
2023-05-19T08:47:52.048Z,18.47
2023-05-19T08:50:52.224Z,18.63
2023-05-19T08:56:14.043Z,19.06
2023-05-19T08:58:49.766Z,19.07
2023-05-19T09:01:23.554Z,18.88
2023-05-19T09:03:53.152Z,18.87
2023-05-19T09:06:22.803Z,18.71
2023-05-19T09:08:50.881Z,18.44
2023-05-19T09:11:17.829Z,18.33
2023-05-19T09:13:51.889Z,18.19
2023-05-19T09:16:21.128Z,18.16
2023-05-19T09:18:57.351Z,18.04
2023-05-19T09:21:34.395Z,18.18
2023-05-19T09:24:07.169Z,18.27
2023-05-19T09:26:37.683Z,18.19
2023-05-19T09:29:12.501Z,18.22
2023-05-19T09:31:49.674Z,18.00
2023-05-19T09:34:16.680Z,17.76
2023-05-19T09:36:47.646Z,17.85
2023-05-19T09:39:16.713Z,17.71
2023-05-19T09:41:44.121Z,17.64
2023-05-19T09:44:13.773Z,17.51
2023-05-19T09:46:48.294Z,17.65
2023-05-19T09:49:19.496Z,17.57
2023-05-19T09:51:48.808Z,17.93
2023-05-19T09:54:20.397Z,18.57
2023-05-19T09:56:51.848Z,19.18
2023-05-19T09:59:19.947Z,19.60
2023-05-19T10:01:47.285Z,19.69
2023-05-19T10:04:16.095Z,19.65
2023-05-19T10:06:43.928Z,19.69
2023-05-19T10:09:16.097Z,19.63
2023-05-19T10:11:44.233Z,19.75
2023-05-19T10:14:11.079Z,19.89
2023-05-19T10:16:44.459Z,19.99
2023-05-19T10:19:22.770Z,20.19
2023-05-19T10:21:51.287Z,20.10
2023-05-19T10:24:20.994Z,20.44
2023-05-19T10:26:51.231Z,20.56
2023-05-19T10:29:24.233Z,20.52
2023-05-19T10:31:55.331Z,20.47
2023-05-19T10:34:39.652Z,20.59
2023-05-19T10:37:17.193Z,20.89
2023-05-19T10:39:46.521Z,21.01
2023-05-19T10:42:18.877Z,20.87
2023-05-19T10:44:58.733Z,20.76
2023-05-19T10:47:48.133Z,20.72
2023-05-19T10:50:19.690Z,20.60
2023-05-19T10:52:59.660Z,20.61
2023-05-19T10:55:50.260Z,21.07
2023-05-19T10:58:49.586Z,21.31
2023-05-19T11:01:19.232Z,21.28
2023-05-19T11:03:46.886Z,20.91
2023-05-19T11:06:21.666Z,20.65
2023-05-19T11:08:52.916Z,20.39
2023-05-19T11:11:23.655Z,20.07
2023-05-19T11:13:56.881Z,19.98
2023-05-19T11:16:27.724Z,20.07
2023-05-19T11:19:02.890Z,20.03
2023-05-19T11:21:48.133Z,20.10
2023-05-19T11:24:39.101Z,19.93
2023-05-19T11:27:26.233Z,20.27
2023-05-19T11:29:57.390Z,20.08
2023-05-19T11:32:27.579Z,20.05
2023-05-19T11:34:57.989Z,20.01
2023-05-19T11:37:25.883Z,20.01
2023-05-19T11:39:52.943Z,19.85
2023-05-19T11:42:22.548Z,19.54
2023-05-19T11:44:58.034Z,19.76
2023-05-19T11:47:26.658Z,20.21
2023-05-19T11:49:56.381Z,20.41
2023-05-19T11:52:26.161Z,20.47
2023-05-19T11:54:52.836Z,20.54
2023-05-19T11:57:19.957Z,20.53
2023-05-19T11:59:49.561Z,20.53
2023-05-19T12:02:18.857Z,20.26
2023-05-19T12:04:46.048Z,20.08
2023-05-19T12:07:13.038Z,20.10
2023-05-19T12:09:42.896Z,20.39
2023-05-19T12:12:09.693Z,20.44
2023-05-19T12:14:37.542Z,20.55
2023-05-19T12:17:10.987Z,20.53
2023-05-19T12:19:43.678Z,20.76
2023-05-19T12:22:10.884Z,20.89
2023-05-19T12:24:41.021Z,20.49
2023-05-19T12:27:13.250Z,20.69
2023-05-19T12:29:43.054Z,20.40
2023-05-19T12:32:10.171Z,20.48
2023-05-19T12:34:37.342Z,20.18
2023-05-19T12:37:06.209Z,20.43
2023-05-19T12:39:33.041Z,20.68
2023-05-19T12:42:03.199Z,20.72
2023-05-19T12:44:31.540Z,21.13
2023-05-19T12:47:00.950Z,21.38
2023-05-19T12:49:30.466Z,21.13
2023-05-19T12:51:57.194Z,21.03
2023-05-19T12:54:27.907Z,21.16
2023-05-19T12:56:57.469Z,20.79
2023-05-19T12:59:37.398Z,21.14
2023-05-19T13:02:10.347Z,21.26
2023-05-19T13:04:39.665Z,21.21
2023-05-19T13:07:06.198Z,21.12
2023-05-19T13:09:39.611Z,21.00
2023-05-19T13:12:06.498Z,21.26
2023-05-19T13:14:33.286Z,21.64
2023-05-19T13:16:59.945Z,21.53
2023-05-19T13:19:26.686Z,21.26
2023-05-19T13:21:53.614Z,21.10
2023-05-19T13:24:23.144Z,21.19
2023-05-19T13:26:51.646Z,21.18
2023-05-19T13:29:18.860Z,21.10
2023-05-19T13:31:48.500Z,21.30
2023-05-19T13:34:15.149Z,21.22
2023-05-19T13:36:41.883Z,20.91
2023-05-19T13:39:26.348Z,21.06
2023-05-19T13:41:54.552Z,21.38
2023-05-19T13:44:23.068Z,21.04
2023-05-19T13:46:50.741Z,20.82
2023-05-19T13:49:23.820Z,20.40
2023-05-19T13:51:50.446Z,20.24
2023-05-19T13:54:17.811Z,20.33
2023-05-19T13:56:44.593Z,20.39
2023-05-19T13:59:12.468Z,20.10
2023-05-19T14:01:41.632Z,20.16
2023-05-19T14:04:08.321Z,20.20
2023-05-19T14:06:34.999Z,20.06
2023-05-19T14:09:04.295Z,19.86
2023-05-19T14:11:30.877Z,19.76
2023-05-19T14:13:57.817Z,19.58
2023-05-19T14:16:25.821Z,19.42
2023-05-19T14:18:55.277Z,19.70
2023-05-19T14:21:22.113Z,20.13
2023-05-19T14:23:50.817Z,19.98
2023-05-19T14:26:17.372Z,19.87
2023-05-19T14:28:43.954Z,19.48
2023-05-19T14:31:11.228Z,19.90
2023-05-19T14:33:40.381Z,19.80
2023-05-19T14:36:07.613Z,19.48
2023-05-19T14:38:34.269Z,19.15
2023-05-19T14:41:01.005Z,18.84
2023-05-19T14:43:34.583Z,18.69
2023-05-19T14:46:01.330Z,18.78
2023-05-19T14:48:35.200Z,18.94
2023-05-19T14:51:25.190Z,19.18
2023-05-19T14:53:52.094Z,19.22
2023-05-19T14:56:18.694Z,19.03
2023-05-19T14:58:47.714Z,18.81
2023-05-19T15:01:17.455Z,18.96
2023-05-19T15:03:44.271Z,19.05
2023-05-19T15:06:12.330Z,19.43
2023-05-19T15:08:41.106Z,19.63
2023-05-19T15:11:07.725Z,19.58
2023-05-19T15:13:34.265Z,19.38
2023-05-19T15:16:16.097Z,19.22
2023-05-19T15:18:44.094Z,19.07
2023-05-19T15:21:12.272Z,19.07
2023-05-19T15:23:38.966Z,19.26
2023-05-19T15:26:05.692Z,19.23
2023-05-19T15:28:32.330Z,19.06
2023-05-19T15:30:58.894Z,18.99
2023-05-19T15:33:25.582Z,19.01
2023-05-19T15:35:52.167Z,18.98
2023-05-19T15:38:20.335Z,18.96
2023-05-19T15:40:47.001Z,18.90
2023-05-19T15:43:13.573Z,18.91
2023-05-19T15:45:40.071Z,18.87
2023-05-19T15:48:08.114Z,18.76
2023-05-19T15:50:38.923Z,18.73
2023-05-19T15:53:05.625Z,18.66
2023-05-19T15:55:33.495Z,18.54
2023-05-19T15:58:00.235Z,18.31
2023-05-19T16:00:26.811Z,18.26
2023-05-19T16:02:53.369Z,18.20
2023-05-19T16:05:20.335Z,18.12
2023-05-19T16:07:46.732Z,18.00
2023-05-19T16:10:13.333Z,17.90
2023-05-19T16:12:41.142Z,17.81
2023-05-19T16:15:13.057Z,17.67
2023-05-19T16:17:39.964Z,17.53
2023-05-19T16:20:07.653Z,17.51
2023-05-19T16:22:34.193Z,17.40
2023-05-19T16:25:00.682Z,17.38
2023-05-19T16:27:27.114Z,17.33
2023-05-19T16:29:54.975Z,17.31
2023-05-19T16:32:21.438Z,17.30
2023-05-19T16:34:47.933Z,17.28
2023-05-19T16:37:17.504Z,17.30
2023-05-19T16:39:44.343Z,17.33
2023-05-19T16:42:10.837Z,17.33
2023-05-19T16:44:37.308Z,17.30
2023-05-19T16:47:05.171Z,17.32
2023-05-19T16:49:31.756Z,17.29
2023-05-19T16:51:58.199Z,17.26
2023-05-19T16:54:24.821Z,17.20
2023-05-19T16:56:51.839Z,17.15
2023-05-19T16:59:20.584Z,17.08
2023-05-19T17:01:47.268Z,16.97
2023-05-19T17:04:15.074Z,16.92
2023-05-19T17:06:41.611Z,16.89
2023-05-19T17:09:08.221Z,16.87
2023-05-19T17:11:34.673Z,16.86
2023-05-19T17:14:01.345Z,16.85
2023-05-19T17:16:27.952Z,16.83
2023-05-19T17:18:57.149Z,16.77
2023-05-19T17:21:54.614Z,16.72
2023-05-19T17:24:23.285Z,16.62
2023-05-19T17:26:52.639Z,16.56
2023-05-19T17:29:19.165Z,16.51
2023-05-19T17:31:45.757Z,16.48
2023-05-19T17:34:12.280Z,16.40
2023-05-19T17:36:41.021Z,16.33
2023-05-19T17:39:07.506Z,16.29
2023-05-19T17:41:33.961Z,16.23
2023-05-19T17:44:02.982Z,16.18
2023-05-19T17:46:35.374Z,16.13
2023-05-19T17:49:04.570Z,16.10
2023-05-19T17:51:31.639Z,16.04
2023-05-19T17:54:00.326Z,16.02
2023-05-19T17:56:27.152Z,15.97
2023-05-19T17:59:01.510Z,15.89
2023-05-19T18:01:30.355Z,15.80
2023-05-19T18:03:57.547Z,15.74
2023-05-19T18:06:27.746Z,15.66
2023-05-19T18:08:57.820Z,15.59
2023-05-19T18:11:26.269Z,15.54
2023-05-19T18:13:52.809Z,15.49
2023-05-19T18:16:19.337Z,15.44
2023-05-19T18:18:45.952Z,15.35
2023-05-19T18:21:12.436Z,15.33
2023-05-19T18:23:38.863Z,15.29
2023-05-19T18:26:21.616Z,15.20
2023-05-19T18:28:52.252Z,15.20
2023-05-19T18:31:18.703Z,15.14
2023-05-19T18:33:45.948Z,15.09
2023-05-19T18:36:12.586Z,15.05
2023-05-19T18:38:39.208Z,14.98
2023-05-19T18:41:07.199Z,14.95
2023-05-19T18:43:38.307Z,14.91
2023-05-19T18:46:11.503Z,14.89
2023-05-19T18:48:38.200Z,14.86
2023-05-19T18:51:04.684Z,14.80
2023-05-19T18:53:33.007Z,14.78
2023-05-19T18:56:03.636Z,14.72
2023-05-19T18:58:33.292Z,14.65
2023-05-19T19:01:00.012Z,14.61
2023-05-19T19:03:27.962Z,14.60
2023-05-19T19:05:55.001Z,14.57
2023-05-19T19:08:24.491Z,14.53
2023-05-19T19:10:51.763Z,14.49
2023-05-19T19:13:21.633Z,14.47
2023-05-19T19:15:48.163Z,14.41
2023-05-19T19:18:14.741Z,14.38
2023-05-19T19:20:42.653Z,14.36
2023-05-19T19:23:12.230Z,14.33
2023-05-19T19:25:38.797Z,14.28
2023-05-19T19:28:05.292Z,14.28
2023-05-19T19:30:33.602Z,14.26
2023-05-19T19:33:00.437Z,14.26
2023-05-19T19:35:27.000Z,14.22
2023-05-19T19:38:00.241Z,14.21
2023-05-19T19:40:26.866Z,14.19
2023-05-19T19:43:02.526Z,14.19
2023-05-19T19:45:29.097Z,14.14
2023-05-19T19:47:55.741Z,14.11
2023-05-19T19:50:24.891Z,14.07
2023-05-19T19:52:55.179Z,13.98
2023-05-19T19:55:21.917Z,13.98
2023-05-19T19:57:48.567Z,13.94
2023-05-19T20:00:20.581Z,13.90
2023-05-19T20:03:03.521Z,13.86
2023-05-19T20:05:31.387Z,13.84
2023-05-19T20:07:59.456Z,13.82
2023-05-19T20:10:27.849Z,13.77
2023-05-19T20:12:57.004Z,13.72
2023-05-19T20:15:23.513Z,13.67
2023-05-19T20:17:50.402Z,13.63
2023-05-19T20:20:17.957Z,13.59
2023-05-19T20:22:44.535Z,13.56
2023-05-19T20:25:12.472Z,13.52
2023-05-19T20:27:39.082Z,13.50
2023-05-19T20:30:06.962Z,13.46
2023-05-19T20:32:33.782Z,13.38
2023-05-19T20:35:00.521Z,13.40
2023-05-19T20:37:27.095Z,13.37
2023-05-19T20:39:53.969Z,13.32
2023-05-19T20:42:23.569Z,13.27
2023-05-19T20:44:52.624Z,13.16
2023-05-19T20:47:19.508Z,13.16
2023-05-19T20:49:46.200Z,13.13
2023-05-19T20:52:20.829Z,13.12
2023-05-19T20:54:47.644Z,13.06
2023-05-19T20:57:14.403Z,12.99
2023-05-19T20:59:42.663Z,12.98
2023-05-19T21:02:12.514Z,12.98
2023-05-19T21:04:41.204Z,12.96
2023-05-19T21:07:09.708Z,12.88
2023-05-19T21:09:36.451Z,12.85
2023-05-19T21:12:06.362Z,12.85
2023-05-19T21:14:33.322Z,12.82
2023-05-19T21:17:01.271Z,12.80
2023-05-19T21:19:28.104Z,12.79
2023-05-19T21:22:02.236Z,12.79
2023-05-19T21:24:28.858Z,12.73
2023-05-19T21:26:57.531Z,12.69
2023-05-19T21:29:24.146Z,12.60
2023-05-19T21:31:50.806Z,12.63
2023-05-19T21:34:19.137Z,12.60
2023-05-19T21:36:47.171Z,12.61
2023-05-19T21:39:14.812Z,12.59
2023-05-19T21:41:52.518Z,12.51
2023-05-19T21:44:21.740Z,12.51
2023-05-19T21:46:48.493Z,12.50
2023-05-19T21:49:17.167Z,12.46
2023-05-19T21:51:45.367Z,12.43
2023-05-19T21:54:12.304Z,12.43
2023-05-19T21:56:39.103Z,12.44
2023-05-19T21:59:09.112Z,12.36
2023-05-19T22:01:39.896Z,12.32
2023-05-19T22:04:06.698Z,12.33
2023-05-19T22:06:35.945Z,12.26
2023-05-19T22:09:06.686Z,12.28
2023-05-19T22:11:35.706Z,12.23
2023-05-19T22:14:04.130Z,12.22
2023-05-19T22:16:30.879Z,12.25
2023-05-19T22:18:57.822Z,12.24
2023-05-19T22:21:35.817Z,12.26
2023-05-19T22:24:07.017Z,12.27
2023-05-19T22:26:36.740Z,12.25
2023-05-19T22:29:03.501Z,12.30
2023-05-19T22:31:30.084Z,12.30
2023-05-19T22:33:58.446Z,12.25
2023-05-19T22:36:31.744Z,12.30
2023-05-19T22:39:05.847Z,12.31
2023-05-19T22:41:36.006Z,12.30
2023-05-19T22:44:02.693Z,12.37
2023-05-19T22:46:32.789Z,12.34
2023-05-19T22:49:01.647Z,12.32
2023-05-19T22:51:29.718Z,12.32
2023-05-19T22:53:58.327Z,12.29
2023-05-19T22:56:27.799Z,12.31
2023-05-19T22:58:56.725Z,12.33
2023-05-19T23:01:23.432Z,12.33
2023-05-19T23:03:51.555Z,12.41
2023-05-19T23:06:18.358Z,12.35
2023-05-19T23:08:46.152Z,12.32
2023-05-19T23:11:16.472Z,12.36
2023-05-19T23:13:44.913Z,12.33
2023-05-19T23:16:14.813Z,12.34
2023-05-19T23:18:43.595Z,12.32
2023-05-19T23:21:10.606Z,12.30
2023-05-19T23:23:38.809Z,12.29
2023-05-19T23:26:07.333Z,12.28
2023-05-19T23:28:36.871Z,12.24
2023-05-19T23:31:10.816Z,12.26
2023-05-19T23:33:37.775Z,12.26
2023-05-19T23:36:09.570Z,12.22
2023-05-19T23:38:39.150Z,12.23
2023-05-19T23:41:36.262Z,12.18
2023-05-19T23:44:05.384Z,12.21
2023-05-19T23:46:33.476Z,12.19
2023-05-19T23:49:00.221Z,12.19
2023-05-19T23:51:26.742Z,12.17
2023-05-19T23:54:00.253Z,12.18
2023-05-19T23:56:26.871Z,12.17
2023-05-19T23:58:53.493Z,12.20
